createdAt,value
2022-08-16T00:00:57.940Z,99537.50
2022-08-16T00:04:01.994Z,99542.38
2022-08-16T00:07:09.588Z,99540.53
2022-08-16T00:10:20.846Z,99543.63
2022-08-16T00:13:25.536Z,99542.31
2022-08-16T00:17:05.331Z,99542.31
2022-08-16T00:19:57.259Z,99543.00
2022-08-16T00:23:01.335Z,99550.22
2022-08-16T00:26:35.309Z,99547.09
2022-08-16T00:29:31.592Z,99544.22
2022-08-16T00:32:38.806Z,99549.84
2022-08-16T00:35:42.493Z,99547.53
2022-08-16T00:38:46.671Z,99555.72
2022-08-16T00:41:52.755Z,99558.00
2022-08-16T00:45:08.051Z,99557.53
2022-08-16T00:48:30.838Z,99560.84
2022-08-16T00:51:35.480Z,99557.97
2022-08-16T00:54:43.075Z,99561.59
2022-08-16T00:58:00.176Z,99552.28
2022-08-16T01:01:08.204Z,99549.63
2022-08-16T01:04:29.272Z,99551.44
2022-08-16T01:07:52.049Z,99553.75
2022-08-16T01:10:59.987Z,99547.50
2022-08-16T01:14:30.091Z,99556.75
2022-08-16T01:17:36.946Z,99563.94
2022-08-16T01:20:51.371Z,99561.38
2022-08-16T01:24:51.723Z,99560.38
2022-08-16T01:27:38.558Z,99559.81
2022-08-16T01:30:49.886Z,99560.06
2022-08-16T01:33:54.978Z,99554.38
2022-08-16T01:37:09.061Z,99558.72
2022-08-16T01:40:16.748Z,99561.53
2022-08-16T01:43:22.010Z,99561.53
2022-08-16T01:46:43.787Z,99559.69
2022-08-16T01:50:41.907Z,99564.03
2022-08-16T01:53:12.901Z,99555.47
2022-08-16T01:56:24.332Z,99546.72
2022-08-16T01:59:29.958Z,99548.22
2022-08-16T02:02:34.054Z,99555.16
2022-08-16T02:05:51.810Z,99560.53
2022-08-16T02:08:56.204Z,99554.88
2022-08-16T02:12:00.360Z,99561.03
2022-08-16T02:15:27.205Z,99555.59
2022-08-16T02:18:31.124Z,99559.69
2022-08-16T02:21:37.832Z,99556.00
2022-08-16T02:25:04.022Z,99554.72
2022-08-16T02:28:08.595Z,99563.63
2022-08-16T02:31:15.003Z,99561.72
2022-08-16T02:34:20.574Z,99565.88
2022-08-16T02:37:39.728Z,99565.09
2022-08-16T02:40:57.347Z,99564.50
2022-08-16T02:44:05.861Z,99575.50
2022-08-16T02:47:10.152Z,99568.25
2022-08-16T02:50:54.814Z,99570.06
2022-08-16T02:53:44.684Z,99575.03
2022-08-16T02:56:49.018Z,99575.72
2022-08-16T02:59:53.823Z,99573.84
2022-08-16T03:02:58.315Z,99575.44
2022-08-16T03:06:03.461Z,99573.63
2022-08-16T03:09:29.855Z,99570.31
2022-08-16T03:12:37.993Z,99579.50
2022-08-16T03:15:59.675Z,99581.28
2022-08-16T03:19:04.978Z,99577.78
2022-08-16T03:22:10.574Z,99573.53
2022-08-16T03:25:16.126Z,99577.88
2022-08-16T03:28:23.317Z,99577.63
2022-08-16T03:31:34.875Z,99582.47
2022-08-16T03:34:46.408Z,99585.34
2022-08-16T03:38:01.551Z,99597.09
2022-08-16T03:41:24.299Z,99597.31
2022-08-16T03:44:44.929Z,99598.78
2022-08-16T03:47:58.266Z,99602.38
2022-08-16T03:51:07.963Z,99616.13
2022-08-16T03:54:12.990Z,99610.25
2022-08-16T03:57:17.163Z,99616.38
2022-08-16T04:00:35.725Z,99613.81
2022-08-16T04:03:44.281Z,99617.41
2022-08-16T04:06:48.543Z,99623.81
2022-08-16T04:09:55.235Z,99620.66
2022-08-16T04:13:04.431Z,99620.66
2022-08-16T04:16:26.383Z,99620.66
2022-08-16T04:19:32.775Z,99620.66
2022-08-16T04:22:37.980Z,99626.81
2022-08-16T04:25:47.010Z,99628.94
2022-08-16T04:29:14.590Z,99631.53
2022-08-16T04:32:16.180Z,99632.03
2022-08-16T04:35:24.200Z,99630.94
2022-08-16T04:38:28.400Z,99635.41
2022-08-16T04:41:37.543Z,99635.16
2022-08-16T04:44:54.169Z,99639.25
2022-08-16T04:48:00.101Z,99635.16
2022-08-16T04:51:07.947Z,99637.25
2022-08-16T04:54:19.435Z,99644.22
2022-08-16T04:57:23.729Z,99634.47
2022-08-16T05:00:34.727Z,99643.03
2022-08-16T05:03:41.856Z,99643.88
2022-08-16T05:07:03.297Z,99629.31
2022-08-16T05:10:20.102Z,99628.63
2022-08-16T05:13:41.027Z,99645.88
2022-08-16T05:16:45.999Z,99644.19
2022-08-16T05:19:58.071Z,99637.31
2022-08-16T05:23:02.461Z,99645.91
2022-08-16T05:26:06.586Z,99643.94
2022-08-16T05:29:24.989Z,99654.59
2022-08-16T05:32:47.710Z,99652.03
2022-08-16T05:35:54.654Z,99668.31
2022-08-16T05:38:59.730Z,99667.59
2022-08-16T05:42:04.544Z,99667.97
2022-08-16T05:45:09.335Z,99674.19
2022-08-16T05:48:13.596Z,99679.69
2022-08-16T05:51:37.715Z,99677.50
2022-08-16T05:54:47.650Z,99676.84
2022-08-16T05:58:03.039Z,99687.81
2022-08-16T06:01:07.237Z,99685.81
2022-08-16T06:04:36.093Z,99688.63
2022-08-16T06:07:39.117Z,99686.94
2022-08-16T06:11:02.622Z,99687.78
2022-08-16T06:14:08.165Z,99691.72
2022-08-16T06:17:12.333Z,99705.22
2022-08-16T06:20:25.686Z,99697.03
2022-08-16T06:23:39.996Z,99708.16
2022-08-16T06:26:57.762Z,99711.09
2022-08-16T06:30:03.190Z,99702.84
2022-08-16T06:33:07.457Z,99706.53
2022-08-16T06:36:17.209Z,99714.69
2022-08-16T06:39:25.242Z,99719.63
2022-08-16T06:42:47.268Z,99713.00
2022-08-16T06:45:52.939Z,99712.50
2022-08-16T06:48:57.248Z,99709.22
2022-08-16T06:52:03.044Z,99712.38
2022-08-16T06:55:13.039Z,99720.75
2022-08-16T06:58:22.081Z,99720.81
2022-08-16T07:01:43.245Z,99728.84
2022-08-16T07:04:50.721Z,99729.41
2022-08-16T07:07:57.047Z,99734.19
2022-08-16T07:11:01.685Z,99740.22
2022-08-16T07:14:26.348Z,99734.53
2022-08-16T07:17:30.019Z,99736.84
2022-08-16T07:20:47.039Z,99732.19
2022-08-16T07:23:58.039Z,99730.13
2022-08-16T07:27:12.525Z,99735.03
2022-08-16T07:30:38.155Z,99742.28
2022-08-16T07:33:52.107Z,99748.00
2022-08-16T07:36:59.683Z,99752.66
2022-08-16T07:40:11.318Z,99764.03
2022-08-16T07:43:15.643Z,99759.09
2022-08-16T07:46:37.495Z,99765.81
2022-08-16T07:49:53.056Z,99764.97
2022-08-16T07:53:02.745Z,99766.16
2022-08-16T07:56:07.006Z,99762.53
2022-08-16T07:59:10.843Z,99764.97
2022-08-16T08:02:19.827Z,99765.81
2022-08-16T08:05:35.770Z,99762.53
2022-08-16T08:08:50.853Z,99769.41
2022-08-16T08:11:59.946Z,99764.75
2022-08-16T08:15:09.621Z,99771.56
2022-08-16T08:18:30.294Z,99773.41
2022-08-16T08:21:58.984Z,99778.13
2022-08-16T08:25:03.730Z,99774.84
2022-08-16T08:28:11.075Z,99778.88
2022-08-16T08:31:17.195Z,99780.50
2022-08-16T08:34:22.443Z,99773.69
2022-08-16T08:37:27.580Z,99773.50
2022-08-16T08:40:51.813Z,99782.41
2022-08-16T08:43:57.044Z,99778.47
2022-08-16T08:47:07.895Z,99782.75
2022-08-16T08:50:31.902Z,99784.69
2022-08-16T08:53:37.005Z,99786.25
2022-08-16T08:56:45.781Z,99779.66
2022-08-16T08:59:50.110Z,99785.34
2022-08-16T09:02:58.064Z,99788.34
2022-08-16T09:06:04.440Z,99782.44
2022-08-16T09:09:16.483Z,99782.13
2022-08-16T09:12:30.162Z,99790.78
2022-08-16T09:15:41.016Z,99786.09
2022-08-16T09:18:47.721Z,99782.72
2022-08-16T09:21:59.432Z,99788.09
2022-08-16T09:25:10.117Z,99779.84
2022-08-16T09:29:13.997Z,99780.63
2022-08-16T09:31:42.097Z,99786.81
2022-08-16T09:34:46.473Z,99787.88
2022-08-16T09:38:00.941Z,99784.09
2022-08-16T09:41:14.855Z,99785.22
2022-08-16T09:45:10.684Z,99776.44
2022-08-16T09:47:56.079Z,99773.19
2022-08-16T09:51:01.963Z,99770.03
2022-08-16T09:54:10.708Z,99767.38
2022-08-16T09:57:21.274Z,99766.34
2022-08-16T10:00:44.729Z,99766.97
2022-08-16T10:04:01.861Z,99758.13
2022-08-16T10:07:11.978Z,99762.38
2022-08-16T10:10:30.603Z,99765.06
2022-08-16T10:13:35.587Z,99763.72
2022-08-16T10:16:39.718Z,99770.22
2022-08-16T10:19:47.026Z,99773.78
2022-08-16T10:23:02.119Z,99769.25
2022-08-16T10:27:16.382Z,99762.88
2022-08-16T10:30:00.262Z,99765.00
2022-08-16T10:32:59.341Z,99769.41
2022-08-16T10:36:07.573Z,99757.25
2022-08-16T10:39:11.843Z,99764.22
2022-08-16T10:42:17.348Z,99765.38
2022-08-16T10:45:25.488Z,99761.38
2022-08-16T10:48:31.409Z,99761.59
2022-08-16T10:52:02.521Z,99766.13
2022-08-16T10:58:34.525Z,99759.22
2022-08-16T11:01:43.706Z,99766.28
2022-08-16T11:05:05.887Z,99760.28
2022-08-16T11:08:11.990Z,99762.16
2022-08-16T11:11:20.652Z,99759.97
2022-08-16T11:14:25.423Z,99762.13
2022-08-16T11:17:32.595Z,99758.53
2022-08-16T11:20:41.367Z,99744.53
2022-08-16T11:23:56.884Z,99750.22
2022-08-16T11:27:20.557Z,99762.16
2022-08-16T11:30:28.289Z,99767.50
2022-08-16T11:33:57.856Z,99766.75
2022-08-16T11:37:02.673Z,99765.03
2022-08-16T11:40:09.640Z,99769.41
2022-08-16T11:43:16.956Z,99765.06
2022-08-16T11:46:43.038Z,99760.16
2022-08-16T11:49:45.725Z,99757.75
2022-08-16T11:52:50.390Z,99762.78
2022-08-16T11:55:55.655Z,99760.53
2022-08-16T11:58:59.516Z,99755.69
2022-08-16T12:02:32.345Z,99759.38
2022-08-16T12:05:31.027Z,99763.91
2022-08-16T12:08:36.137Z,99751.00
2022-08-16T12:11:40.635Z,99767.00
2022-08-16T12:14:48.361Z,99767.84
2022-08-16T12:17:54.188Z,99763.03
2022-08-16T12:20:58.460Z,99757.75
2022-08-16T12:24:05.730Z,99764.69
2022-08-16T12:27:10.013Z,99764.91
2022-08-16T12:30:26.472Z,99772.19
2022-08-16T12:33:44.455Z,99768.16
2022-08-16T12:36:48.764Z,99765.25
2022-08-16T12:39:56.080Z,99747.72
2022-08-16T12:43:02.713Z,99761.31
2022-08-16T12:46:09.293Z,99752.31
2022-08-16T12:49:13.564Z,99747.81
2022-08-16T12:52:32.877Z,99753.47
2022-08-16T12:55:41.672Z,99752.00
2022-08-16T12:58:51.760Z,99744.19
2022-08-16T13:01:59.300Z,99745.22
2022-08-16T13:05:07.044Z,99740.97
2022-08-16T13:08:20.231Z,99741.81
2022-08-16T13:11:32.516Z,99739.88
2022-08-16T13:14:41.239Z,99738.41
2022-08-16T13:17:45.391Z,99736.16
2022-08-16T13:20:54.931Z,99735.09
2022-08-16T13:24:00.605Z,99734.06
2022-08-16T13:27:08.283Z,99726.69
2022-08-16T13:30:35.649Z,99728.59
2022-08-16T13:33:38.006Z,99733.25
2022-08-16T13:36:50.089Z,99728.25
2022-08-16T13:39:54.267Z,99737.66
2022-08-16T13:42:59.458Z,99737.69
2022-08-16T13:46:04.638Z,99728.50
2022-08-16T13:49:08.697Z,99724.94
2022-08-16T13:52:13.428Z,99725.41
2022-08-16T13:55:17.878Z,99722.34
2022-08-16T13:58:37.395Z,99719.88
2022-08-16T14:01:55.389Z,99722.00
2022-08-16T14:05:05.309Z,99723.78
2022-08-16T14:08:10.051Z,99718.72
2022-08-16T14:11:14.957Z,99722.72
2022-08-16T14:14:19.024Z,99714.78
2022-08-16T14:17:31.291Z,99721.94
2022-08-16T14:20:54.799Z,99713.31
2022-08-16T14:23:58.922Z,99712.97
2022-08-16T14:27:04.776Z,99711.63
2022-08-16T14:30:15.609Z,99714.25
2022-08-16T14:33:20.224Z,99720.97
2022-08-16T14:36:30.043Z,99710.03
2022-08-16T14:39:35.245Z,99718.59
2022-08-16T14:42:44.302Z,99703.69
2022-08-16T14:45:50.415Z,99704.13
2022-08-16T14:48:54.619Z,99704.50
2022-08-16T14:52:10.095Z,99711.25
2022-08-16T14:55:15.641Z,99706.28
2022-08-16T14:58:35.080Z,99709.00
2022-08-16T15:01:58.570Z,99700.06
2022-08-16T15:05:06.799Z,99706.00
2022-08-16T15:08:13.567Z,99701.78
2022-08-16T15:11:17.797Z,99707.47
2022-08-16T15:14:21.935Z,99702.38
2022-08-16T15:17:27.598Z,99702.25
2022-08-16T15:20:38.513Z,99699.78
2022-08-16T15:23:43.450Z,99707.41
2022-08-16T15:26:48.491Z,99712.09
2022-08-16T15:29:53.884Z,99710.28
2022-08-16T15:33:04.217Z,99708.31
2022-08-16T15:36:08.733Z,99708.19
2022-08-16T15:39:31.702Z,99711.75
2022-08-16T15:42:37.786Z,99707.78
2022-08-16T15:46:05.475Z,99709.91
2022-08-16T15:49:14.304Z,99710.09
2022-08-16T15:52:29.749Z,99704.69
2022-08-16T15:55:35.414Z,99701.97
2022-08-16T15:58:39.659Z,99704.88
2022-08-16T16:01:43.926Z,99707.19
2022-08-16T16:04:48.135Z,99715.28
2022-08-16T16:07:56.574Z,99717.84
2022-08-16T16:11:15.035Z,99716.22
2022-08-16T16:14:21.202Z,99723.50
2022-08-16T16:17:28.223Z,99714.84
2022-08-16T16:20:35.667Z,99719.50
2022-08-16T16:23:54.787Z,99712.34
2022-08-16T16:27:01.857Z,99715.66
2022-08-16T16:30:11.329Z,99714.53
2022-08-16T16:33:33.853Z,99710.75
2022-08-16T16:36:43.567Z,99709.78
2022-08-16T16:39:52.265Z,99709.88
2022-08-16T16:42:59.881Z,99708.66
2022-08-16T16:46:40.487Z,99714.72
2022-08-16T16:49:30.198Z,99717.41
2022-08-16T16:52:44.793Z,99719.34
2022-08-16T16:55:51.983Z,99718.94
2022-08-16T16:58:56.527Z,99719.25
2022-08-16T17:02:41.385Z,99717.22
2022-08-16T17:05:29.365Z,99717.03
2022-08-16T17:08:37.809Z,99718.63
2022-08-16T17:11:46.235Z,99717.41
2022-08-16T17:14:59.487Z,99722.13
2022-08-16T17:19:02.011Z,99726.84
2022-08-16T17:21:27.865Z,99726.34
2022-08-16T17:24:40.081Z,99715.72
2022-08-16T17:27:51.609Z,99723.84
2022-08-16T17:30:56.233Z,99728.53
2022-08-16T17:34:00.354Z,99733.53
2022-08-16T17:37:42.263Z,99730.75
2022-08-16T17:40:58.525Z,99743.28
2022-08-16T17:44:05.377Z,99739.66
2022-08-16T17:47:09.457Z,99738.72
2022-08-16T17:50:13.839Z,99742.69
2022-08-16T17:53:20.019Z,99744.28
2022-08-16T17:56:24.164Z,99752.66
2022-08-16T17:59:29.241Z,99747.25
2022-08-16T18:02:43.369Z,99751.47
2022-08-16T18:05:48.587Z,99756.75
2022-08-16T18:09:01.742Z,99752.69
2022-08-16T18:12:24.011Z,99751.69
2022-08-16T18:15:39.481Z,99752.03
2022-08-16T18:18:44.160Z,99753.66
2022-08-16T18:22:06.857Z,99756.31
2022-08-16T18:25:10.798Z,99755.19
2022-08-16T18:28:15.908Z,99756.31
2022-08-16T18:31:20.157Z,99756.94
2022-08-16T18:34:24.512Z,99758.53
2022-08-16T18:37:28.558Z,99755.78
2022-08-16T18:40:32.841Z,99765.50
2022-08-16T18:44:23.466Z,99769.50
2022-08-16T18:47:00.832Z,99771.16
2022-08-16T18:50:05.673Z,99769.34
2022-08-16T18:53:12.818Z,99779.75
2022-08-16T18:56:16.663Z,99776.72
2022-08-16T18:59:20.651Z,99786.16
2022-08-16T19:02:57.441Z,99789.88
2022-08-16T19:05:55.066Z,99799.81
2022-08-16T19:08:58.928Z,99797.00
2022-08-16T19:12:06.153Z,99798.38
2022-08-16T19:15:14.560Z,99807.72
2022-08-16T19:18:21.914Z,99810.31
2022-08-16T19:21:26.065Z,99809.31
2022-08-16T19:24:30.084Z,99806.25
2022-08-16T19:27:34.287Z,99821.88
2022-08-16T19:30:40.472Z,99815.66
2022-08-16T19:33:53.520Z,99819.84
2022-08-16T19:36:58.977Z,99826.03
2022-08-16T19:40:05.402Z,99825.78
2022-08-16T19:43:29.190Z,99828.16
2022-08-16T19:46:33.513Z,99834.91
2022-08-16T19:49:37.865Z,99838.78
2022-08-16T19:52:43.006Z,99837.50
2022-08-16T19:55:47.714Z,99836.47
2022-08-16T19:59:17.583Z,99843.47
2022-08-16T20:02:35.550Z,99841.69
2022-08-16T20:05:42.843Z,99835.50
2022-08-16T20:08:47.156Z,99832.72
2022-08-16T20:11:53.104Z,99830.88
2022-08-16T20:14:59.153Z,99834.25
2022-08-16T20:18:03.271Z,99831.19
2022-08-16T20:21:18.111Z,99841.56
2022-08-16T20:24:34.148Z,99836.66
2022-08-16T20:27:40.080Z,99836.41
2022-08-16T20:30:43.953Z,99840.31
2022-08-16T20:33:48.008Z,99845.53
2022-08-16T20:36:52.420Z,99841.63
2022-08-16T20:40:28.847Z,99846.03
2022-08-16T20:43:21.287Z,99848.38
2022-08-16T20:46:25.558Z,99841.66
2022-08-16T20:49:29.624Z,99847.13
2022-08-16T20:52:34.087Z,99843.50
2022-08-16T20:55:40.361Z,99851.00
2022-08-16T20:58:44.632Z,99849.72
2022-08-16T21:01:50.102Z,99851.28
2022-08-16T21:04:55.423Z,99850.50
2022-08-16T21:07:59.142Z,99867.06
2022-08-16T21:11:05.651Z,99859.03
2022-08-16T21:14:11.686Z,99858.53
2022-08-16T21:17:16.110Z,99853.31
2022-08-16T21:20:22.617Z,99858.78
2022-08-16T21:23:26.822Z,99861.38
2022-08-16T21:26:31.327Z,99859.03
2022-08-16T21:29:39.582Z,99858.03
2022-08-16T21:32:47.100Z,99858.53
2022-08-16T21:35:52.469Z,99866.03
2022-08-16T21:38:56.715Z,99860.84
2022-08-16T21:42:01.055Z,99863.97
2022-08-16T21:45:12.469Z,99866.03
2022-08-16T21:48:16.544Z,99858.28
2022-08-16T21:51:20.839Z,99868.38
2022-08-16T21:54:25.028Z,99871.47
2022-08-16T21:57:35.598Z,99877.91
2022-08-16T22:00:41.957Z,99879.72
2022-08-16T22:03:45.975Z,99881.78
2022-08-16T22:06:49.718Z,99884.63
2022-08-16T22:09:53.668Z,99886.69
2022-08-16T22:13:00.225Z,99886.94
2022-08-16T22:16:04.591Z,99880.69
2022-08-16T22:19:09.236Z,99882.28
2022-08-16T22:22:13.902Z,99885.91
2022-08-16T22:25:18.324Z,99885.09
2022-08-16T22:28:23.022Z,99888.19
2022-08-16T22:31:27.387Z,99888.94
2022-08-16T22:34:32.229Z,99893.56
2022-08-16T22:37:36.143Z,99892.00
2022-08-16T22:40:40.202Z,99881.63
2022-08-16T22:43:44.828Z,99887.06
2022-08-16T22:46:49.411Z,99884.72
2022-08-16T22:49:53.074Z,99893.50
2022-08-16T22:52:58.405Z,99889.56
2022-08-16T22:56:03.233Z,99881.81
2022-08-16T22:59:07.591Z,99884.38
2022-08-16T23:02:12.039Z,99873.56
2022-08-16T23:05:17.731Z,99876.88
2022-08-16T23:08:38.484Z,99875.34
2022-08-16T23:11:44.802Z,99874.31
2022-08-16T23:14:48.579Z,99874.03
2022-08-16T23:17:58.399Z,99877.88
2022-08-16T23:21:02.699Z,99867.47
2022-08-16T23:24:08.666Z,99874.16
2022-08-16T23:27:12.758Z,99874.91
2022-08-16T23:30:19.366Z,99870.25
2022-08-16T23:33:25.203Z,99875.41
2022-08-16T23:36:28.894Z,99874.63
2022-08-16T23:39:32.760Z,99872.53
2022-08-16T23:43:43.271Z,99874.59
2022-08-16T23:52:54.025Z,99873.50
2022-08-16T23:55:52.122Z,99872.91
2022-08-16T23:59:02.910Z,99879.09
